createdAt,value
2023-03-15T00:02:02.967Z,6.00
2023-03-15T00:06:07.995Z,5.90
2023-03-15T00:10:12.116Z,6.20
2023-03-15T00:14:14.928Z,6.20
2023-03-15T00:18:19.214Z,6.00
2023-03-15T00:22:23.958Z,5.90
2023-03-15T00:26:26.821Z,6.20
2023-03-15T00:30:29.768Z,5.80
2023-03-15T00:34:33.714Z,6.30
2023-03-15T00:38:40.152Z,5.70
2023-03-15T00:42:49.957Z,5.50
2023-03-15T00:46:52.910Z,5.60
2023-03-15T00:51:03.789Z,5.40
2023-03-15T00:55:14.268Z,5.10
2023-03-15T00:59:17.330Z,5.10
2023-03-15T01:03:20.800Z,4.80
2023-03-15T01:07:23.679Z,4.80
2023-03-15T01:11:29.152Z,4.80
2023-03-15T01:15:32.558Z,4.80
2023-03-15T01:19:35.689Z,4.80
2023-03-15T01:23:38.837Z,4.40
2023-03-15T01:27:43.053Z,4.20
2023-03-15T01:31:45.948Z,4.80
2023-03-15T01:35:49.235Z,4.50
2023-03-15T01:39:52.417Z,4.50
2023-03-15T01:43:56.797Z,4.40
2023-03-15T01:47:59.932Z,4.50
2023-03-15T01:52:07.912Z,4.40
2023-03-15T01:56:18.030Z,4.30
2023-03-15T02:00:23.020Z,4.40
2023-03-15T02:04:37.367Z,4.60
2023-03-15T02:08:44.616Z,4.50
2023-03-15T02:12:51.274Z,4.50
2023-03-15T02:16:56.268Z,4.70
2023-03-15T02:21:05.779Z,4.50
2023-03-15T02:25:15.642Z,4.60
2023-03-15T02:29:20.136Z,4.70
2023-03-15T02:33:26.504Z,4.40
2023-03-15T02:37:29.420Z,4.30
2023-03-15T02:41:35.755Z,4.30
2023-03-15T02:45:40.563Z,4.10
2023-03-15T02:49:45.931Z,4.30
2023-03-15T02:53:49.074Z,4.00
2023-03-15T02:57:52.026Z,4.10
2023-03-15T03:01:57.152Z,4.00
2023-03-15T03:06:00.246Z,3.90
2023-03-15T03:10:03.821Z,3.80
2023-03-15T03:14:15.826Z,3.80
2023-03-15T03:18:21.139Z,3.90
2023-03-15T03:22:24.550Z,3.60
2023-03-15T03:26:28.034Z,3.50
2023-03-15T03:30:32.119Z,3.50
2023-03-15T03:34:37.020Z,3.70
2023-03-15T03:38:41.525Z,3.60
2023-03-15T03:42:44.726Z,3.70
2023-03-15T03:46:48.309Z,3.60
2023-03-15T03:50:52.666Z,3.60
2023-03-15T03:54:55.581Z,3.50
2023-03-15T03:58:58.484Z,3.50
2023-03-15T04:03:13.588Z,3.40
2023-03-15T04:07:22.982Z,3.30
2023-03-15T04:11:27.030Z,3.30
2023-03-15T04:15:36.811Z,3.20
2023-03-15T04:19:40.478Z,3.10
2023-03-15T04:23:46.313Z,3.20
2023-03-15T04:28:10.649Z,3.20
2023-03-15T04:32:28.907Z,3.20
2023-03-15T04:36:48.777Z,3.20
2023-03-15T04:41:11.190Z,3.10
2023-03-15T04:45:24.436Z,3.10
2023-03-15T04:49:45.649Z,3.10
2023-03-15T04:54:14.434Z,3.00
2023-03-15T04:58:32.889Z,3.00
2023-03-15T05:02:36.046Z,3.20
2023-03-15T05:07:01.914Z,3.10
2023-03-15T05:11:18.877Z,3.30
2023-03-15T05:15:52.032Z,3.10
2023-03-15T05:20:29.961Z,3.20
2023-03-15T05:24:51.252Z,3.00
2023-03-15T05:29:06.101Z,3.10
2023-03-15T05:33:29.629Z,3.00
2023-03-15T05:38:03.587Z,2.80
2023-03-15T05:42:26.394Z,2.90
2023-03-15T05:46:48.065Z,2.80
2023-03-15T05:51:13.169Z,2.90
2023-03-15T05:55:54.462Z,2.90
2023-03-15T06:00:17.123Z,2.80
2023-03-15T06:04:23.763Z,2.90
2023-03-15T06:08:30.480Z,2.90
2023-03-15T06:12:33.591Z,2.80
2023-03-15T06:16:37.106Z,2.90
2023-03-15T06:20:40.715Z,3.00
2023-03-15T06:24:49.505Z,3.00
2023-03-15T06:28:52.714Z,3.10
2023-03-15T06:32:55.925Z,3.20
2023-03-15T06:36:59.064Z,3.30
2023-03-15T06:41:05.069Z,3.30
2023-03-15T06:45:11.335Z,3.40
2023-03-15T06:49:14.719Z,3.40
2023-03-15T06:53:17.849Z,3.60
2023-03-15T06:57:22.480Z,3.70
2023-03-15T07:01:25.369Z,3.90
2023-03-15T07:05:28.318Z,4.00
2023-03-15T07:09:31.098Z,4.80
2023-03-15T07:13:35.297Z,5.90
2023-03-15T07:17:38.142Z,6.50
2023-03-15T07:21:41.048Z,7.50
2023-03-15T07:25:54.466Z,9.10
2023-03-15T07:29:59.130Z,10.00
2023-03-15T07:34:02.006Z,10.30
2023-03-15T07:38:04.767Z,10.70
2023-03-15T07:42:08.157Z,10.90
2023-03-15T07:46:18.497Z,12.70
2023-03-15T07:50:21.515Z,11.90
2023-03-15T07:54:24.308Z,10.80
2023-03-15T07:58:27.159Z,11.20
2023-03-15T08:02:31.340Z,13.90
2023-03-15T08:06:34.108Z,16.00
2023-03-15T08:10:37.058Z,17.00
2023-03-15T08:14:39.913Z,16.90
2023-03-15T08:18:44.079Z,17.80
2023-03-15T08:22:47.387Z,18.90
2023-03-15T08:26:51.183Z,17.60
2023-03-15T08:30:54.117Z,17.50
2023-03-15T08:34:58.360Z,15.00
2023-03-15T08:39:01.213Z,13.00
2023-03-15T08:43:04.113Z,12.50
2023-03-15T08:47:06.994Z,15.60
2023-03-15T08:51:11.690Z,16.80
2023-03-15T08:55:14.717Z,18.40
2023-03-15T08:59:29.153Z,18.50
2023-03-15T09:03:34.323Z,17.30
2023-03-15T09:07:39.757Z,16.60
2023-03-15T09:11:42.571Z,16.10
2023-03-15T09:15:45.400Z,18.20
2023-03-15T09:19:48.157Z,18.90
2023-03-15T09:23:52.503Z,18.00
2023-03-15T09:27:55.743Z,19.90
2023-03-15T09:31:58.489Z,21.40
2023-03-15T09:36:01.378Z,22.50
2023-03-15T09:40:07.924Z,20.50
2023-03-15T09:44:18.256Z,22.00
2023-03-15T09:48:25.444Z,21.70
2023-03-15T09:52:36.728Z,22.70
2023-03-15T09:56:45.624Z,23.10
2023-03-15T10:00:53.478Z,22.90
2023-03-15T10:05:02.350Z,24.60
2023-03-15T10:09:13.823Z,23.10
2023-03-15T10:13:32.758Z,24.10
2023-03-15T10:17:43.093Z,24.40
2023-03-15T10:21:56.321Z,24.30
2023-03-15T10:25:59.337Z,25.50
2023-03-15T10:30:14.126Z,24.00
2023-03-15T10:34:17.932Z,24.20
2023-03-15T10:38:21.474Z,24.80
2023-03-15T10:42:34.190Z,26.20
2023-03-15T10:46:39.146Z,27.30
2023-03-15T10:50:41.993Z,24.60
2023-03-15T10:54:44.991Z,25.70
2023-03-15T10:59:02.291Z,23.90
2023-03-15T11:03:19.463Z,25.50
2023-03-15T11:07:22.670Z,26.10
2023-03-15T11:11:25.514Z,26.30
2023-03-15T11:15:28.343Z,26.10
2023-03-15T11:19:35.534Z,23.50
2023-03-15T11:23:40.715Z,25.50
2023-03-15T11:27:47.062Z,25.80
2023-03-15T11:31:51.878Z,25.90
2023-03-15T11:35:58.814Z,27.80
2023-03-15T11:40:11.785Z,28.90
2023-03-15T11:44:23.095Z,30.10
2023-03-15T11:48:29.847Z,30.80
2023-03-15T11:52:34.141Z,28.10
2023-03-15T11:56:47.265Z,26.20
2023-03-15T12:00:54.789Z,28.10
2023-03-15T12:05:01.787Z,28.40
2023-03-15T12:09:48.168Z,28.20
2023-03-15T12:14:04.035Z,29.00
2023-03-15T12:18:07.379Z,28.90
2023-03-15T12:22:16.480Z,24.80
2023-03-15T12:26:42.393Z,23.00
2023-03-15T12:30:46.667Z,20.90
2023-03-15T12:34:51.295Z,19.80
2023-03-15T12:39:04.338Z,19.70
2023-03-15T12:43:09.145Z,20.70
2023-03-15T12:47:13.039Z,20.50
2023-03-15T12:51:57.385Z,19.10
2023-03-15T12:56:27.855Z,18.70
2023-03-15T13:00:32.839Z,17.80
2023-03-15T13:04:35.989Z,17.20
2023-03-15T13:08:47.543Z,16.70
2023-03-15T13:12:56.954Z,16.70
2023-03-15T13:17:07.436Z,17.60
2023-03-15T13:21:19.430Z,17.00
2023-03-15T13:25:30.647Z,16.40
2023-03-15T13:29:34.466Z,16.70
2023-03-15T13:33:37.450Z,15.90
2023-03-15T13:37:45.047Z,14.90
2023-03-15T13:41:49.286Z,14.80
2023-03-15T13:45:52.126Z,14.00
2023-03-15T13:49:54.950Z,14.20
2023-03-15T13:54:03.073Z,13.50
2023-03-15T13:58:10.531Z,13.30
2023-03-15T14:02:17.252Z,13.00
2023-03-15T14:06:24.260Z,13.00
2023-03-15T14:10:30.958Z,12.50
2023-03-15T14:14:38.446Z,12.50
2023-03-15T14:18:42.943Z,12.30
2023-03-15T14:22:46.032Z,12.00
2023-03-15T14:26:53.715Z,11.90
2023-03-15T14:31:02.364Z,12.30
2023-03-15T14:35:07.989Z,11.80
2023-03-15T14:39:19.773Z,11.80
2023-03-15T14:43:22.596Z,11.60
2023-03-15T14:47:26.854Z,11.50
2023-03-15T14:51:30.435Z,11.70
2023-03-15T14:55:35.042Z,11.20
2023-03-15T14:59:37.801Z,11.10
2023-03-15T15:03:44.813Z,11.00
2023-03-15T15:07:47.638Z,11.10
2023-03-15T15:11:51.387Z,11.00
2023-03-15T15:15:56.543Z,11.20
2023-03-15T15:20:00.972Z,11.10
2023-03-15T15:24:05.370Z,11.30
2023-03-15T15:28:08.232Z,11.20
2023-03-15T15:32:11.039Z,11.20
2023-03-15T15:36:26.860Z,11.30
2023-03-15T15:40:31.651Z,11.10
2023-03-15T15:44:34.444Z,10.90
2023-03-15T15:48:37.255Z,10.90
2023-03-15T15:52:46.450Z,10.80
2023-03-15T15:56:51.718Z,10.70
2023-03-15T16:00:54.486Z,10.50
2023-03-15T16:04:57.549Z,10.40
2023-03-15T16:09:02.036Z,10.50
2023-03-15T16:13:05.589Z,10.30
2023-03-15T16:17:12.355Z,10.30
2023-03-15T16:21:18.070Z,10.20
2023-03-15T16:25:26.393Z,10.10
2023-03-15T16:29:36.445Z,9.90
2023-03-15T16:33:39.229Z,9.80
2023-03-15T16:37:43.130Z,9.90
2023-03-15T16:41:47.292Z,10.00
2023-03-15T16:45:50.131Z,9.60
2023-03-15T16:49:52.918Z,9.60
2023-03-15T16:54:08.541Z,9.50
2023-03-15T16:58:20.808Z,9.40
2023-03-15T17:02:25.668Z,9.30
2023-03-15T17:06:29.192Z,9.30
2023-03-15T17:10:33.343Z,9.20
2023-03-15T17:14:38.808Z,9.20
2023-03-15T17:18:42.991Z,9.10
2023-03-15T17:22:45.905Z,9.10
2023-03-15T17:26:48.835Z,9.10
2023-03-15T17:30:59.588Z,9.00
2023-03-15T17:35:13.583Z,8.90
2023-03-15T17:39:17.837Z,8.90
2023-03-15T17:43:20.639Z,8.80
2023-03-15T17:47:24.813Z,8.80
2023-03-15T17:51:30.194Z,8.80
2023-03-15T17:55:34.881Z,8.70
2023-03-15T17:59:37.830Z,8.60
2023-03-15T18:03:43.637Z,8.60
2023-03-15T18:07:58.262Z,8.50
2023-03-15T18:12:02.315Z,8.50
2023-03-15T18:16:05.320Z,8.50
2023-03-15T18:20:12.203Z,8.60
2023-03-15T18:24:15.026Z,8.60
2023-03-15T18:28:17.823Z,8.40
2023-03-15T18:32:21.037Z,8.40
2023-03-15T18:36:25.125Z,8.30
2023-03-15T18:40:30.680Z,8.30
2023-03-15T18:44:33.513Z,8.20
2023-03-15T18:48:40.885Z,8.10
2023-03-15T18:52:46.146Z,8.20
2023-03-15T18:56:49.211Z,8.10
2023-03-15T19:00:51.995Z,8.10
2023-03-15T19:04:58.375Z,8.00
2023-03-15T19:09:02.367Z,7.90
2023-03-15T19:13:05.178Z,7.90
2023-03-15T19:17:08.303Z,7.90
2023-03-15T19:21:11.539Z,7.90
2023-03-15T19:25:15.839Z,7.90
2023-03-15T19:29:18.669Z,7.90
2023-03-15T19:33:21.443Z,7.80
2023-03-15T19:37:24.631Z,7.80
2023-03-15T19:41:28.777Z,7.80
2023-03-15T19:45:31.670Z,7.70
2023-03-15T19:49:34.788Z,7.60
2023-03-15T19:53:37.852Z,7.70
2023-03-15T19:57:42.201Z,7.60
2023-03-15T20:01:45.112Z,7.50
2023-03-15T20:05:48.181Z,7.50
2023-03-15T20:09:50.941Z,7.50
2023-03-15T20:13:55.458Z,7.50
2023-03-15T20:17:58.245Z,7.40
2023-03-15T20:22:03.049Z,7.50
2023-03-15T20:26:09.892Z,7.50
2023-03-15T20:30:16.840Z,7.40
2023-03-15T20:34:20.474Z,7.50
2023-03-15T20:38:23.371Z,7.40
2023-03-15T20:42:26.282Z,7.50
2023-03-15T20:46:31.139Z,7.30
2023-03-15T20:50:34.257Z,7.20
2023-03-15T20:54:40.258Z,7.10
2023-03-15T20:58:43.127Z,7.40
2023-03-15T21:02:47.848Z,7.00
2023-03-15T21:06:50.795Z,6.90
2023-03-15T21:10:53.957Z,6.90
2023-03-15T21:14:56.801Z,6.80
2023-03-15T21:19:01.557Z,6.70
2023-03-15T21:23:06.462Z,6.60
2023-03-15T21:27:11.269Z,6.60
2023-03-15T21:31:15.390Z,6.70
2023-03-15T21:35:22.095Z,6.50
2023-03-15T21:39:24.969Z,6.50
2023-03-15T21:43:28.443Z,6.60
2023-03-15T21:47:31.486Z,6.50
2023-03-15T21:51:35.702Z,6.60
2023-03-15T21:55:38.617Z,6.60
2023-03-15T21:59:41.699Z,6.30
2023-03-15T22:03:44.533Z,6.30
2023-03-15T22:07:49.042Z,6.30
2023-03-15T22:11:51.788Z,6.40
2023-03-15T22:15:54.988Z,6.40
2023-03-15T22:19:57.791Z,6.50
2023-03-15T22:24:02.066Z,6.50
2023-03-15T22:28:04.838Z,6.50
2023-03-15T22:32:07.672Z,6.40
2023-03-15T22:36:10.867Z,6.40
2023-03-15T22:40:15.393Z,6.40
2023-03-15T22:44:18.282Z,6.40
2023-03-15T22:48:21.169Z,6.40
2023-03-15T22:52:23.992Z,6.40
2023-03-15T22:56:28.219Z,6.00
2023-03-15T23:00:30.998Z,5.90
2023-03-15T23:04:33.936Z,5.90
2023-03-15T23:08:36.853Z,5.90
2023-03-15T23:12:41.487Z,5.90
2023-03-15T23:16:44.325Z,5.70
2023-03-15T23:20:47.186Z,5.70
2023-03-15T23:24:49.956Z,5.70
2023-03-15T23:28:54.279Z,5.50
2023-03-15T23:32:58.813Z,5.30
2023-03-15T23:37:01.727Z,5.30
2023-03-15T23:41:05.152Z,5.30
2023-03-15T23:45:10.944Z,5.20
2023-03-15T23:49:13.858Z,5.10
2023-03-15T23:53:16.608Z,5.40
2023-03-15T23:57:19.399Z,5.30
